sensor_id;sensor_type;location;lat;lon;timestamp;P1;durP1;ratioP1;P2;durP2;ratioP2
47161;SDS011;32921;53.256;8.198;2024-01-06T00:01:36;325.52;;;304.35;;
47161;SDS011;32921;53.256;8.198;2024-01-06T00:04:02;310.45;;;290.83;;
47161;SDS011;32921;53.256;8.198;2024-01-06T00:06:28;319.40;;;298.98;;
47161;SDS011;32921;53.256;8.198;2024-01-06T00:08:53;369.65;;;345.25;;
47161;SDS011;32921;53.256;8.198;2024-01-06T00:11:20;298.42;;;279.13;;
47161;SDS011;32921;53.256;8.198;2024-01-06T00:13:46;351.60;;;328.23;;
47161;SDS011;32921;53.256;8.198;2024-01-06T00:16:12;352.92;;;329.90;;
47161;SDS011;32921;53.256;8.198;2024-01-06T00:18:38;311.55;;;291.80;;
47161;SDS011;32921;53.256;8.198;2024-01-06T00:21:04;327.40;;;305.33;;
47161;SDS011;32921;53.256;8.198;2024-01-06T00:23:30;333.83;;;311.98;;
47161;SDS011;32921;53.256;8.198;2024-01-06T00:25:56;294.08;;;275.80;;
47161;SDS011;32921;53.256;8.198;2024-01-06T00:28:21;393.17;;;366.33;;
47161;SDS011;32921;53.256;8.198;2024-01-06T00:30:47;393.42;;;367.15;;
47161;SDS011;32921;53.256;8.198;2024-01-06T00:33:13;303.65;;;284.35;;
47161;SDS011;32921;53.256;8.198;2024-01-06T00:35:38;350.67;;;327.77;;
47161;SDS011;32921;53.256;8.198;2024-01-06T00:38:04;325.85;;;304.50;;
47161;SDS011;32921;53.256;8.198;2024-01-06T00:40:29;313.23;;;292.95;;
47161;SDS011;32921;53.256;8.198;2024-01-06T00:42:57;297.15;;;278.40;;
47161;SDS011;32921;53.256;8.198;2024-01-06T00:45:23;346.08;;;323.13;;
47161;SDS011;32921;53.256;8.198;2024-01-06T00:47:49;327.23;;;305.58;;
47161;SDS011;32921;53.256;8.198;2024-01-06T00:50:14;439.83;;;409.08;;
47161;SDS011;32921;53.256;8.198;2024-01-06T00:52:41;335.60;;;313.42;;
47161;SDS011;32921;53.256;8.198;2024-01-06T00:55:06;308.58;;;288.58;;
47161;SDS011;32921;53.256;8.198;2024-01-06T00:57:32;274.30;;;257.58;;
47161;SDS011;32921;53.256;8.198;2024-01-06T00:59:58;376.65;;;351.50;;
47161;SDS011;32921;53.256;8.198;2024-01-06T01:02:24;323.88;;;302.92;;
47161;SDS011;32921;53.256;8.198;2024-01-06T01:04:49;293.13;;;274.70;;
47161;SDS011;32921;53.256;8.198;2024-01-06T01:07:15;340.67;;;319.00;;
47161;SDS011;32921;53.256;8.198;2024-01-06T01:09:41;315.08;;;294.98;;
47161;SDS011;32921;53.256;8.198;2024-01-06T01:12:06;295.92;;;276.98;;
47161;SDS011;32921;53.256;8.198;2024-01-06T01:14:32;265.40;;;248.40;;
47161;SDS011;32921;53.256;8.198;2024-01-06T01:16:57;287.25;;;268.38;;
47161;SDS011;32921;53.256;8.198;2024-01-06T01:19:23;270.48;;;253.13;;
47161;SDS011;32921;53.256;8.198;2024-01-06T01:21:48;245.23;;;230.25;;
47161;SDS011;32921;53.256;8.198;2024-01-06T01:24:14;305.52;;;285.85;;
47161;SDS011;32921;53.256;8.198;2024-01-06T01:26:40;269.52;;;252.27;;
47161;SDS011;32921;53.256;8.198;2024-01-06T01:29:05;293.00;;;274.08;;
47161;SDS011;32921;53.256;8.198;2024-01-06T01:31:31;361.25;;;337.02;;
47161;SDS011;32921;53.256;8.198;2024-01-06T01:33:56;260.33;;;243.65;;
47161;SDS011;32921;53.256;8.198;2024-01-06T01:36:22;267.50;;;250.52;;
47161;SDS011;32921;53.256;8.198;2024-01-06T01:38:48;293.33;;;274.77;;
47161;SDS011;32921;53.256;8.198;2024-01-06T01:41:13;281.48;;;263.52;;
47161;SDS011;32921;53.256;8.198;2024-01-06T01:43:39;350.67;;;327.00;;
47161;SDS011;32921;53.256;8.198;2024-01-06T01:46:04;327.65;;;306.25;;
47161;SDS011;32921;53.256;8.198;2024-01-06T01:48:30;298.55;;;279.33;;
47161;SDS011;32921;53.256;8.198;2024-01-06T01:50:59;330.02;;;308.75;;
47161;SDS011;32921;53.256;8.198;2024-01-06T01:53:25;278.50;;;260.70;;
47161;SDS011;32921;53.256;8.198;2024-01-06T01:55:51;315.70;;;295.38;;
47161;SDS011;32921;53.256;8.198;2024-01-06T01:58:18;346.98;;;324.15;;
47161;SDS011;32921;53.256;8.198;2024-01-06T02:00:43;317.10;;;296.42;;
47161;SDS011;32921;53.256;8.198;2024-01-06T02:03:09;263.50;;;247.07;;
47161;SDS011;32921;53.256;8.198;2024-01-06T02:05:37;316.02;;;295.67;;
47161;SDS011;32921;53.256;8.198;2024-01-06T02:08:03;310.75;;;290.90;;
47161;SDS011;32921;53.256;8.198;2024-01-06T02:10:29;273.38;;;256.48;;
47161;SDS011;32921;53.256;8.198;2024-01-06T02:12:55;257.50;;;241.73;;
47161;SDS011;32921;53.256;8.198;2024-01-06T02:15:20;285.38;;;267.35;;
47161;SDS011;32921;53.256;8.198;2024-01-06T02:17:46;262.95;;;246.82;;
47161;SDS011;32921;53.256;8.198;2024-01-06T02:20:12;417.50;;;388.25;;
47161;SDS011;32921;53.256;8.198;2024-01-06T02:22:39;256.33;;;240.35;;
47161;SDS011;32921;53.256;8.198;2024-01-06T02:25:05;303.05;;;283.77;;
47161;SDS011;32921;53.256;8.198;2024-01-06T02:27:37;258.30;;;242.05;;
47161;SDS011;32921;53.256;8.198;2024-01-06T02:30:03;287.60;;;269.27;;
47161;SDS011;32921;53.256;8.198;2024-01-06T02:32:29;274.30;;;256.80;;
47161;SDS011;32921;53.256;8.198;2024-01-06T02:34:55;317.00;;;295.00;;
47161;SDS011;32921;53.256;8.198;2024-01-06T02:37:20;302.55;;;283.27;;
47161;SDS011;32921;53.256;8.198;2024-01-06T02:39:46;262.40;;;245.70;;
47161;SDS011;32921;53.256;8.198;2024-01-06T02:42:11;271.67;;;254.43;;
47161;SDS011;32921;53.256;8.198;2024-01-06T02:44:37;291.33;;;272.77;;
47161;SDS011;32921;53.256;8.198;2024-01-06T02:47:03;294.00;;;275.10;;
47161;SDS011;32921;53.256;8.198;2024-01-06T02:49:28;242.38;;;227.60;;
47161;SDS011;32921;53.256;8.198;2024-01-06T02:51:54;280.38;;;262.75;;
47161;SDS011;32921;53.256;8.198;2024-01-06T02:54:20;283.70;;;265.30;;
47161;SDS011;32921;53.256;8.198;2024-01-06T02:56:45;238.05;;;223.38;;
47161;SDS011;32921;53.256;8.198;2024-01-06T02:59:11;359.88;;;335.85;;
47161;SDS011;32921;53.256;8.198;2024-01-06T03:01:36;270.52;;;253.90;;
47161;SDS011;32921;53.256;8.198;2024-01-06T03:04:02;285.73;;;267.77;;
47161;SDS011;32921;53.256;8.198;2024-01-06T03:06:27;274.27;;;257.30;;
47161;SDS011;32921;53.256;8.198;2024-01-06T03:08:53;292.25;;;273.90;;
47161;SDS011;32921;53.256;8.198;2024-01-06T03:11:19;273.38;;;255.82;;
47161;SDS011;32921;53.256;8.198;2024-01-06T03:13:44;254.20;;;238.63;;
47161;SDS011;32921;53.256;8.198;2024-01-06T03:16:11;279.48;;;262.10;;
47161;SDS011;32921;53.256;8.198;2024-01-06T03:18:37;278.38;;;261.00;;
47161;SDS011;32921;53.256;8.198;2024-01-06T03:21:03;298.17;;;278.88;;
47161;SDS011;32921;53.256;8.198;2024-01-06T03:23:29;295.33;;;275.65;;
47161;SDS011;32921;53.256;8.198;2024-01-06T03:25:54;282.23;;;264.25;;
47161;SDS011;32921;53.256;8.198;2024-01-06T03:28:20;305.70;;;285.85;;
47161;SDS011;32921;53.256;8.198;2024-01-06T03:30:45;245.80;;;230.32;;
47161;SDS011;32921;53.256;8.198;2024-01-06T03:33:11;329.73;;;307.65;;
47161;SDS011;32921;53.256;8.198;2024-01-06T03:35:37;295.50;;;276.73;;
47161;SDS011;32921;53.256;8.198;2024-01-06T03:38:02;305.42;;;286.02;;
47161;SDS011;32921;53.256;8.198;2024-01-06T03:40:28;286.80;;;268.83;;
47161;SDS011;32921;53.256;8.198;2024-01-06T03:42:54;265.00;;;248.77;;
47161;SDS011;32921;53.256;8.198;2024-01-06T03:45:19;281.25;;;262.98;;
47161;SDS011;32921;53.256;8.198;2024-01-06T03:47:45;291.23;;;272.70;;
47161;SDS011;32921;53.256;8.198;2024-01-06T03:50:11;297.70;;;278.67;;
47161;SDS011;32921;53.256;8.198;2024-01-06T03:52:37;266.80;;;250.18;;
47161;SDS011;32921;53.256;8.198;2024-01-06T03:55:03;259.98;;;243.85;;
47161;SDS011;32921;53.256;8.198;2024-01-06T03:57:30;266.67;;;249.90;;
47161;SDS011;32921;53.256;8.198;2024-01-06T03:59:56;286.00;;;267.58;;
47161;SDS011;32921;53.256;8.198;2024-01-06T04:02:22;316.40;;;296.10;;
47161;SDS011;32921;53.256;8.198;2024-01-06T04:04:48;304.15;;;284.92;;
47161;SDS011;32921;53.256;8.198;2024-01-06T04:07:14;325.60;;;305.00;;
47161;SDS011;32921;53.256;8.198;2024-01-06T04:09:41;279.83;;;262.35;;
47161;SDS011;32921;53.256;8.198;2024-01-06T04:12:08;267.77;;;251.07;;
47161;SDS011;32921;53.256;8.198;2024-01-06T04:14:34;313.35;;;293.27;;
47161;SDS011;32921;53.256;8.198;2024-01-06T04:16:59;284.98;;;266.42;;
47161;SDS011;32921;53.256;8.198;2024-01-06T04:19:25;314.50;;;294.17;;
47161;SDS011;32921;53.256;8.198;2024-01-06T04:21:50;339.50;;;317.50;;
47161;SDS011;32921;53.256;8.198;2024-01-06T04:24:16;349.08;;;327.05;;
47161;SDS011;32921;53.256;8.198;2024-01-06T04:26:41;273.35;;;256.55;;
47161;SDS011;32921;53.256;8.198;2024-01-06T04:29:09;302.05;;;282.75;;
47161;SDS011;32921;53.256;8.198;2024-01-06T04:31:35;309.75;;;289.92;;
47161;SDS011;32921;53.256;8.198;2024-01-06T04:34:01;273.30;;;256.10;;
47161;SDS011;32921;53.256;8.198;2024-01-06T04:36:28;272.02;;;254.95;;
47161;SDS011;32921;53.256;8.198;2024-01-06T04:38:54;302.20;;;283.50;;
47161;SDS011;32921;53.256;8.198;2024-01-06T04:41:19;278.25;;;261.05;;
47161;SDS011;32921;53.256;8.198;2024-01-06T04:43:45;299.92;;;280.80;;
47161;SDS011;32921;53.256;8.198;2024-01-06T04:46:11;312.52;;;292.80;;
47161;SDS011;32921;53.256;8.198;2024-01-06T04:48:37;313.92;;;293.85;;
47161;SDS011;32921;53.256;8.198;2024-01-06T04:51:05;350.70;;;327.98;;
47161;SDS011;32921;53.256;8.198;2024-01-06T04:53:34;291.38;;;273.23;;
47161;SDS011;32921;53.256;8.198;2024-01-06T04:56:03;310.17;;;291.42;;
47161;SDS011;32921;53.256;8.198;2024-01-06T04:58:29;294.63;;;276.63;;
47161;SDS011;32921;53.256;8.198;2024-01-06T05:00:54;310.58;;;291.15;;
47161;SDS011;32921;53.256;8.198;2024-01-06T05:03:20;312.40;;;292.30;;
47161;SDS011;32921;53.256;8.198;2024-01-06T05:05:45;337.70;;;316.73;;
47161;SDS011;32921;53.256;8.198;2024-01-06T05:08:11;336.48;;;316.10;;
47161;SDS011;32921;53.256;8.198;2024-01-06T05:10:37;306.77;;;287.83;;
47161;SDS011;32921;53.256;8.198;2024-01-06T05:13:02;329.02;;;308.27;;
47161;SDS011;32921;53.256;8.198;2024-01-06T05:15:28;331.08;;;310.63;;
47161;SDS011;32921;53.256;8.198;2024-01-06T05:17:53;309.10;;;290.30;;
47161;SDS011;32921;53.256;8.198;2024-01-06T05:20:19;337.95;;;317.38;;
47161;SDS011;32921;53.256;8.198;2024-01-06T05:22:45;314.77;;;295.60;;
47161;SDS011;32921;53.256;8.198;2024-01-06T05:25:10;305.80;;;287.00;;
47161;SDS011;32921;53.256;8.198;2024-01-06T05:27:36;316.52;;;296.73;;
47161;SDS011;32921;53.256;8.198;2024-01-06T05:30:02;313.17;;;294.23;;
47161;SDS011;32921;53.256;8.198;2024-01-06T05:32:28;348.42;;;326.92;;
47161;SDS011;32921;53.256;8.198;2024-01-06T05:34:53;409.42;;;381.77;;
47161;SDS011;32921;53.256;8.198;2024-01-06T05:37:19;321.38;;;301.88;;
47161;SDS011;32921;53.256;8.198;2024-01-06T05:39:44;326.50;;;306.23;;
47161;SDS011;32921;53.256;8.198;2024-01-06T05:42:10;341.73;;;320.60;;
47161;SDS011;32921;53.256;8.198;2024-01-06T05:44:40;328.08;;;308.25;;
47161;SDS011;32921;53.256;8.198;2024-01-06T05:47:06;371.08;;;348.05;;
47161;SDS011;32921;53.256;8.198;2024-01-06T05:49:33;334.88;;;314.55;;
47161;SDS011;32921;53.256;8.198;2024-01-06T05:51:58;331.50;;;311.05;;
47161;SDS011;32921;53.256;8.198;2024-01-06T05:54:24;360.90;;;338.13;;
47161;SDS011;32921;53.256;8.198;2024-01-06T05:56:50;341.17;;;320.63;;
47161;SDS011;32921;53.256;8.198;2024-01-06T05:59:16;354.10;;;332.50;;
47161;SDS011;32921;53.256;8.198;2024-01-06T06:01:41;346.35;;;325.50;;
47161;SDS011;32921;53.256;8.198;2024-01-06T06:04:08;349.27;;;328.27;;
47161;SDS011;32921;53.256;8.198;2024-01-06T06:06:35;332.88;;;312.83;;
47161;SDS011;32921;53.256;8.198;2024-01-06T06:09:00;359.80;;;336.98;;
47161;SDS011;32921;53.256;8.198;2024-01-06T06:11:26;364.27;;;342.10;;
47161;SDS011;32921;53.256;8.198;2024-01-06T06:13:52;369.40;;;346.38;;
47161;SDS011;32921;53.256;8.198;2024-01-06T06:16:17;384.35;;;359.77;;
47161;SDS011;32921;53.256;8.198;2024-01-06T06:18:43;350.70;;;328.98;;
47161;SDS011;32921;53.256;8.198;2024-01-06T06:21:09;373.63;;;350.65;;
47161;SDS011;32921;53.256;8.198;2024-01-06T06:23:35;368.20;;;345.67;;
47161;SDS011;32921;53.256;8.198;2024-01-06T06:26:04;389.75;;;365.38;;
47161;SDS011;32921;53.256;8.198;2024-01-06T06:28:30;413.70;;;387.90;;
47161;SDS011;32921;53.256;8.198;2024-01-06T06:30:56;408.15;;;382.45;;
47161;SDS011;32921;53.256;8.198;2024-01-06T06:33:22;429.23;;;401.48;;
47161;SDS011;32921;53.256;8.198;2024-01-06T06:35:47;406.15;;;380.63;;
47161;SDS011;32921;53.256;8.198;2024-01-06T06:38:13;396.90;;;372.52;;
47161;SDS011;32921;53.256;8.198;2024-01-06T06:40:38;399.20;;;374.00;;
47161;SDS011;32921;53.256;8.198;2024-01-06T06:43:04;438.85;;;409.92;;
47161;SDS011;32921;53.256;8.198;2024-01-06T06:45:30;442.85;;;414.88;;
47161;SDS011;32921;53.256;8.198;2024-01-06T06:47:55;410.20;;;384.60;;
47161;SDS011;32921;53.256;8.198;2024-01-06T06:50:21;403.98;;;378.60;;
47161;SDS011;32921;53.256;8.198;2024-01-06T06:52:46;425.17;;;398.05;;
47161;SDS011;32921;53.256;8.198;2024-01-06T06:55:12;424.85;;;397.92;;
47161;SDS011;32921;53.256;8.198;2024-01-06T06:57:38;437.10;;;409.13;;
47161;SDS011;32921;53.256;8.198;2024-01-06T07:00:04;436.05;;;408.50;;
47161;SDS011;32921;53.256;8.198;2024-01-06T07:02:32;444.05;;;415.60;;
47161;SDS011;32921;53.256;8.198;2024-01-06T07:04:58;488.23;;;455.00;;
47161;SDS011;32921;53.256;8.198;2024-01-06T07:07:24;410.83;;;384.67;;
47161;SDS011;32921;53.256;8.198;2024-01-06T07:09:49;414.27;;;388.10;;
47161;SDS011;32921;53.256;8.198;2024-01-06T07:12:15;419.52;;;392.92;;
47161;SDS011;32921;53.256;8.198;2024-01-06T07:14:40;434.20;;;406.08;;
47161;SDS011;32921;53.256;8.198;2024-01-06T07:17:06;431.38;;;404.05;;
47161;SDS011;32921;53.256;8.198;2024-01-06T07:19:33;465.90;;;435.77;;
47161;SDS011;32921;53.256;8.198;2024-01-06T07:21:58;434.30;;;406.95;;
47161;SDS011;32921;53.256;8.198;2024-01-06T07:24:24;429.60;;;402.45;;
47161;SDS011;32921;53.256;8.198;2024-01-06T07:26:49;457.15;;;427.98;;
47161;SDS011;32921;53.256;8.198;2024-01-06T07:29:15;486.83;;;454.55;;
47161;SDS011;32921;53.256;8.198;2024-01-06T07:31:40;447.17;;;418.25;;
47161;SDS011;32921;53.256;8.198;2024-01-06T07:34:06;444.77;;;416.58;;
47161;SDS011;32921;53.256;8.198;2024-01-06T07:36:32;426.02;;;398.85;;
47161;SDS011;32921;53.256;8.198;2024-01-06T07:38:57;419.63;;;393.00;;
47161;SDS011;32921;53.256;8.198;2024-01-06T07:41:23;446.95;;;418.60;;
47161;SDS011;32921;53.256;8.198;2024-01-06T07:43:48;426.55;;;399.25;;
47161;SDS011;32921;53.256;8.198;2024-01-06T07:46:14;439.20;;;411.13;;
47161;SDS011;32921;53.256;8.198;2024-01-06T07:48:40;427.42;;;400.38;;
47161;SDS011;32921;53.256;8.198;2024-01-06T07:51:05;450.95;;;422.13;;
47161;SDS011;32921;53.256;8.198;2024-01-06T07:53:31;414.08;;;388.02;;
47161;SDS011;32921;53.256;8.198;2024-01-06T07:55:58;423.88;;;396.92;;
47161;SDS011;32921;53.256;8.198;2024-01-06T07:58:23;439.02;;;411.27;;
47161;SDS011;32921;53.256;8.198;2024-01-06T08:00:49;468.40;;;437.83;;
47161;SDS011;32921;53.256;8.198;2024-01-06T08:03:15;433.40;;;406.08;;
47161;SDS011;32921;53.256;8.198;2024-01-06T08:05:41;450.67;;;421.77;;
47161;SDS011;32921;53.256;8.198;2024-01-06T08:08:07;435.73;;;407.77;;
47161;SDS011;32921;53.256;8.198;2024-01-06T08:10:33;443.30;;;414.75;;
47161;SDS011;32921;53.256;8.198;2024-01-06T08:12:58;461.92;;;431.77;;
47161;SDS011;32921;53.256;8.198;2024-01-06T08:15:24;450.60;;;421.30;;
47161;SDS011;32921;53.256;8.198;2024-01-06T08:17:49;551.35;;;511.98;;
47161;SDS011;32921;53.256;8.198;2024-01-06T08:20:15;451.45;;;422.17;;
47161;SDS011;32921;53.256;8.198;2024-01-06T08:22:41;457.70;;;427.98;;
47161;SDS011;32921;53.256;8.198;2024-01-06T08:25:07;490.77;;;457.75;;
47161;SDS011;32921;53.256;8.198;2024-01-06T08:27:33;478.70;;;447.88;;
47161;SDS011;32921;53.256;8.198;2024-01-06T08:29:59;464.30;;;434.58;;
47161;SDS011;32921;53.256;8.198;2024-01-06T08:32:24;472.00;;;441.58;;
47161;SDS011;32921;53.256;8.198;2024-01-06T08:34:50;478.25;;;447.10;;
47161;SDS011;32921;53.256;8.198;2024-01-06T08:37:16;500.65;;;468.25;;
47161;SDS011;32921;53.256;8.198;2024-01-06T08:39:41;485.02;;;453.63;;
47161;SDS011;32921;53.256;8.198;2024-01-06T08:42:07;484.02;;;452.65;;
47161;SDS011;32921;53.256;8.198;2024-01-06T08:44:33;487.58;;;456.08;;
47161;SDS011;32921;53.256;8.198;2024-01-06T08:46:59;492.80;;;460.52;;
47161;SDS011;32921;53.256;8.198;2024-01-06T08:49:24;504.08;;;470.67;;
47161;SDS011;32921;53.256;8.198;2024-01-06T08:51:50;521.40;;;486.90;;
47161;SDS011;32921;53.256;8.198;2024-01-06T08:54:15;493.27;;;461.25;;
47161;SDS011;32921;53.256;8.198;2024-01-06T08:56:41;517.58;;;483.20;;
47161;SDS011;32921;53.256;8.198;2024-01-06T08:59:06;525.33;;;490.48;;
47161;SDS011;32921;53.256;8.198;2024-01-06T09:01:32;542.78;;;506.60;;
47161;SDS011;32921;53.256;8.198;2024-01-06T09:04:00;546.58;;;510.05;;
47161;SDS011;32921;53.256;8.198;2024-01-06T09:06:26;551.30;;;514.42;;
47161;SDS011;32921;53.256;8.198;2024-01-06T09:08:52;512.92;;;479.00;;
47161;SDS011;32921;53.256;8.198;2024-01-06T09:11:18;539.35;;;503.67;;
47161;SDS011;32921;53.256;8.198;2024-01-06T09:13:43;551.35;;;514.60;;
47161;SDS011;32921;53.256;8.198;2024-01-06T09:16:09;549.28;;;512.75;;
47161;SDS011;32921;53.256;8.198;2024-01-06T09:18:35;593.13;;;553.05;;
47161;SDS011;32921;53.256;8.198;2024-01-06T09:21:01;562.55;;;524.60;;
47161;SDS011;32921;53.256;8.198;2024-01-06T09:23:28;571.03;;;532.83;;
47161;SDS011;32921;53.256;8.198;2024-01-06T09:25:53;559.30;;;521.80;;
47161;SDS011;32921;53.256;8.198;2024-01-06T09:28:19;578.42;;;538.95;;
47161;SDS011;32921;53.256;8.198;2024-01-06T09:30:46;556.92;;;519.17;;
47161;SDS011;32921;53.256;8.198;2024-01-06T09:33:12;576.13;;;536.88;;
47161;SDS011;32921;53.256;8.198;2024-01-06T09:35:40;611.42;;;569.80;;
47161;SDS011;32921;53.256;8.198;2024-01-06T09:38:06;579.88;;;540.78;;
47161;SDS011;32921;53.256;8.198;2024-01-06T09:40:32;578.80;;;539.83;;
47161;SDS011;32921;53.256;8.198;2024-01-06T09:43:00;585.83;;;545.53;;
47161;SDS011;32921;53.256;8.198;2024-01-06T09:45:27;590.65;;;550.55;;
47161;SDS011;32921;53.256;8.198;2024-01-06T09:47:53;595.17;;;554.17;;
47161;SDS011;32921;53.256;8.198;2024-01-06T09:50:20;572.90;;;533.95;;
47161;SDS011;32921;53.256;8.198;2024-01-06T09:52:47;622.83;;;579.85;;
47161;SDS011;32921;53.256;8.198;2024-01-06T09:55:24;580.88;;;541.28;;
47161;SDS011;32921;53.256;8.198;2024-01-06T09:57:53;612.97;;;571.17;;
47161;SDS011;32921;53.256;8.198;2024-01-06T10:00:20;612.20;;;570.22;;
47161;SDS011;32921;53.256;8.198;2024-01-06T10:02:47;634.85;;;591.00;;
47161;SDS011;32921;53.256;8.198;2024-01-06T10:05:20;618.80;;;575.95;;
47161;SDS011;32921;53.256;8.198;2024-01-06T10:07:45;636.28;;;592.60;;
47161;SDS011;32921;53.256;8.198;2024-01-06T10:10:13;638.67;;;594.35;;
47161;SDS011;32921;53.256;8.198;2024-01-06T10:12:40;638.92;;;594.28;;
47161;SDS011;32921;53.256;8.198;2024-01-06T10:15:07;650.88;;;605.22;;
47161;SDS011;32921;53.256;8.198;2024-01-06T10:17:37;636.58;;;592.45;;
47161;SDS011;32921;53.256;8.198;2024-01-06T10:20:13;650.53;;;604.88;;
47161;SDS011;32921;53.256;8.198;2024-01-06T10:22:40;627.00;;;583.10;;
47161;SDS011;32921;53.256;8.198;2024-01-06T10:25:10;649.90;;;604.33;;
47161;SDS011;32921;53.256;8.198;2024-01-06T10:27:36;668.42;;;620.53;;
47161;SDS011;32921;53.256;8.198;2024-01-06T10:30:03;662.65;;;616.10;;
47161;SDS011;32921;53.256;8.198;2024-01-06T10:32:33;596.35;;;554.30;;
47161;SDS011;32921;53.256;8.198;2024-01-06T10:35:02;658.67;;;612.05;;
47161;SDS011;32921;53.256;8.198;2024-01-06T10:37:30;656.95;;;610.85;;
47161;SDS011;32921;53.256;8.198;2024-01-06T10:40:12;656.85;;;611.20;;
47161;SDS011;32921;53.256;8.198;2024-01-06T10:42:41;664.22;;;617.80;;
47161;SDS011;32921;53.256;8.198;2024-01-06T10:45:08;655.78;;;609.67;;
47161;SDS011;32921;53.256;8.198;2024-01-06T10:47:35;658.30;;;612.05;;
47161;SDS011;32921;53.256;8.198;2024-01-06T10:50:01;640.08;;;595.47;;
47161;SDS011;32921;53.256;8.198;2024-01-06T10:52:28;665.30;;;618.72;;
47161;SDS011;32921;53.256;8.198;2024-01-06T10:54:54;653.03;;;606.72;;
47161;SDS011;32921;53.256;8.198;2024-01-06T10:57:20;643.85;;;598.88;;
47161;SDS011;32921;53.256;8.198;2024-01-06T10:59:49;626.13;;;581.90;;
47161;SDS011;32921;53.256;8.198;2024-01-06T11:02:16;664.00;;;616.78;;
47161;SDS011;32921;53.256;8.198;2024-01-06T11:04:43;641.85;;;596.83;;
47161;SDS011;32921;53.256;8.198;2024-01-06T11:07:16;642.55;;;597.00;;
47161;SDS011;32921;53.256;8.198;2024-01-06T11:09:50;619.33;;;575.83;;
47161;SDS011;32921;53.256;8.198;2024-01-06T11:12:23;622.50;;;578.45;;
47161;SDS011;32921;53.256;8.198;2024-01-06T11:14:48;619.75;;;576.03;;
47161;SDS011;32921;53.256;8.198;2024-01-06T11:17:37;615.80;;;572.70;;
47161;SDS011;32921;53.256;8.198;2024-01-06T11:20:18;634.58;;;589.97;;
47161;SDS011;32921;53.256;8.198;2024-01-06T11:22:45;614.55;;;571.10;;
47161;SDS011;32921;53.256;8.198;2024-01-06T11:25:17;613.00;;;569.40;;
47161;SDS011;32921;53.256;8.198;2024-01-06T11:27:46;624.70;;;580.17;;
47161;SDS011;32921;53.256;8.198;2024-01-06T11:30:22;600.00;;;557.55;;
47161;SDS011;32921;53.256;8.198;2024-01-06T11:32:51;626.28;;;581.72;;
47161;SDS011;32921;53.256;8.198;2024-01-06T11:35:18;610.58;;;566.65;;
47161;SDS011;32921;53.256;8.198;2024-01-06T11:40:15;585.60;;;544.20;;
47161;SDS011;32921;53.256;8.198;2024-01-06T11:43:00;594.80;;;552.67;;
47161;SDS011;32921;53.256;8.198;2024-01-06T11:45:27;611.40;;;567.25;;
47161;SDS011;32921;53.256;8.198;2024-01-06T11:47:54;614.80;;;570.03;;
47161;SDS011;32921;53.256;8.198;2024-01-06T11:50:24;621.72;;;576.75;;
47161;SDS011;32921;53.256;8.198;2024-01-06T11:52:51;579.10;;;537.08;;
47161;SDS011;32921;53.256;8.198;2024-01-06T11:55:17;579.28;;;537.50;;
47161;SDS011;32921;53.256;8.198;2024-01-06T11:57:44;609.97;;;566.70;;
47161;SDS011;32921;53.256;8.198;2024-01-06T12:00:10;599.30;;;556.42;;
47161;SDS011;32921;53.256;8.198;2024-01-06T12:02:36;586.85;;;544.45;;
47161;SDS011;32921;53.256;8.198;2024-01-06T12:05:02;567.40;;;526.30;;
47161;SDS011;32921;53.256;8.198;2024-01-06T12:07:28;587.90;;;545.17;;
47161;SDS011;32921;53.256;8.198;2024-01-06T12:10:00;583.92;;;541.47;;
47161;SDS011;32921;53.256;8.198;2024-01-06T12:12:27;569.63;;;528.55;;
47161;SDS011;32921;53.256;8.198;2024-01-06T12:14:53;516.58;;;480.90;;
47161;SDS011;32921;53.256;8.198;2024-01-06T12:17:19;549.78;;;510.80;;
47161;SDS011;32921;53.256;8.198;2024-01-06T12:19:46;565.15;;;524.88;;
47161;SDS011;32921;53.256;8.198;2024-01-06T12:22:12;526.75;;;488.05;;
47161;SDS011;32921;53.256;8.198;2024-01-06T12:24:39;510.88;;;473.58;;
47161;SDS011;32921;53.256;8.198;2024-01-06T12:27:07;538.55;;;499.15;;
47161;SDS011;32921;53.256;8.198;2024-01-06T12:29:42;515.95;;;478.88;;
47161;SDS011;32921;53.256;8.198;2024-01-06T12:32:09;548.60;;;506.83;;
47161;SDS011;32921;53.256;8.198;2024-01-06T12:34:35;518.55;;;479.10;;
47161;SDS011;32921;53.256;8.198;2024-01-06T12:37:01;585.50;;;540.53;;
47161;SDS011;32921;53.256;8.198;2024-01-06T12:39:27;571.72;;;528.00;;
47161;SDS011;32921;53.256;8.198;2024-01-06T12:41:54;482.95;;;446.90;;
47161;SDS011;32921;53.256;8.198;2024-01-06T12:44:20;559.25;;;516.20;;
47161;SDS011;32921;53.256;8.198;2024-01-06T12:46:46;517.15;;;477.70;;
47161;SDS011;32921;53.256;8.198;2024-01-06T12:49:12;518.55;;;479.20;;
47161;SDS011;32921;53.256;8.198;2024-01-06T12:51:38;478.80;;;442.88;;
47161;SDS011;32921;53.256;8.198;2024-01-06T12:54:04;482.95;;;446.83;;
47161;SDS011;32921;53.256;8.198;2024-01-06T12:56:29;550.50;;;508.13;;
47161;SDS011;32921;53.256;8.198;2024-01-06T12:58:55;511.67;;;473.48;;
47161;SDS011;32921;53.256;8.198;2024-01-06T13:01:21;539.15;;;498.00;;
47161;SDS011;32921;53.256;8.198;2024-01-06T13:03:47;507.25;;;466.85;;
47161;SDS011;32921;53.256;8.198;2024-01-06T13:06:12;542.58;;;501.40;;
47161;SDS011;32921;53.256;8.198;2024-01-06T13:08:39;501.15;;;462.25;;
47161;SDS011;32921;53.256;8.198;2024-01-06T13:11:05;490.88;;;453.63;;
47161;SDS011;32921;53.256;8.198;2024-01-06T13:13:31;585.95;;;539.17;;
47161;SDS011;32921;53.256;8.198;2024-01-06T13:15:57;590.47;;;544.10;;
47161;SDS011;32921;53.256;8.198;2024-01-06T13:18:23;587.97;;;542.08;;
47161;SDS011;32921;53.256;8.198;2024-01-06T13:20:48;597.58;;;550.00;;
47161;SDS011;32921;53.256;8.198;2024-01-06T13:23:14;590.03;;;544.30;;
47161;SDS011;32921;53.256;8.198;2024-01-06T13:25:40;518.63;;;479.00;;
47161;SDS011;32921;53.256;8.198;2024-01-06T13:28:06;523.10;;;482.67;;
47161;SDS011;32921;53.256;8.198;2024-01-06T13:30:33;463.17;;;427.42;;
47161;SDS011;32921;53.256;8.198;2024-01-06T13:32:59;440.63;;;404.35;;
47161;SDS011;32921;53.256;8.198;2024-01-06T13:35:25;501.30;;;460.67;;
47161;SDS011;32921;53.256;8.198;2024-01-06T13:37:51;536.25;;;495.50;;
47161;SDS011;32921;53.256;8.198;2024-01-06T13:40:17;562.40;;;517.67;;
47161;SDS011;32921;53.256;8.198;2024-01-06T13:42:46;537.28;;;495.52;;
47161;SDS011;32921;53.256;8.198;2024-01-06T13:45:12;569.65;;;525.33;;
47161;SDS011;32921;53.256;8.198;2024-01-06T13:47:38;555.95;;;512.88;;
47161;SDS011;32921;53.256;8.198;2024-01-06T13:50:07;568.97;;;523.72;;
47161;SDS011;32921;53.256;8.198;2024-01-06T13:52:33;541.15;;;499.30;;
47161;SDS011;32921;53.256;8.198;2024-01-06T13:55:00;569.42;;;525.13;;